createdAt,value
2018-06-16T00:00:12.786Z,10.00
2018-06-16T00:01:13.014Z,9.50
2018-06-16T00:02:13.225Z,9.80
2018-06-16T00:03:13.425Z,9.30
2018-06-16T00:04:13.617Z,10.60
2018-06-16T00:05:13.815Z,10.10
2018-06-16T00:06:14.023Z,9.60
2018-06-16T00:07:14.227Z,9.60
2018-06-16T00:08:14.437Z,10.20
2018-06-16T00:09:14.632Z,10.40
2018-06-16T00:10:14.827Z,9.10
2018-06-16T00:11:15.013Z,9.40
2018-06-16T00:12:15.216Z,10.30
2018-06-16T00:13:15.415Z,9.70
2018-06-16T00:14:15.621Z,10.00
2018-06-16T00:16:48.011Z,10.50
2018-06-16T00:17:47.933Z,9.80
2018-06-16T00:18:48.127Z,10.00
2018-06-16T00:19:48.315Z,10.10
2018-06-16T00:20:48.522Z,10.00
2018-06-16T00:21:48.723Z,9.30
2018-06-16T00:22:48.949Z,10.00
2018-06-16T00:23:49.149Z,9.70
2018-06-16T00:24:49.359Z,9.40
2018-06-16T00:25:49.553Z,10.00
2018-06-16T00:26:49.761Z,10.90
2018-06-16T00:27:50.108Z,11.20
2018-06-16T00:28:50.172Z,10.20
2018-06-16T00:29:50.369Z,10.00
2018-06-16T00:30:50.558Z,10.10
2018-06-16T00:31:50.754Z,10.30
2018-06-16T00:32:50.959Z,9.70
2018-06-16T00:33:51.190Z,10.30
2018-06-16T00:34:51.448Z,10.20
2018-06-16T00:35:51.512Z,10.20
2018-06-16T00:36:51.724Z,9.50
2018-06-16T00:37:51.915Z,9.70
2018-06-16T00:38:52.100Z,9.40
2018-06-16T00:39:52.310Z,9.70
2018-06-16T00:40:52.526Z,9.30
2018-06-16T00:41:52.741Z,9.30
2018-06-16T00:42:52.950Z,9.20
2018-06-16T00:43:53.162Z,10.30
2018-06-16T00:44:53.347Z,9.60
2018-06-16T00:47:25.540Z,10.10
2018-06-16T00:48:25.790Z,10.40
2018-06-16T00:49:25.865Z,10.90
2018-06-16T00:50:26.054Z,10.70
2018-06-16T00:51:26.248Z,10.40
2018-06-16T00:52:26.444Z,11.40
2018-06-16T00:53:26.654Z,10.30
2018-06-16T00:54:26.855Z,10.90
2018-06-16T00:55:27.050Z,11.60
2018-06-16T00:56:27.262Z,11.80
2018-06-16T00:57:27.465Z,10.80
2018-06-16T00:58:27.661Z,10.70
2018-06-16T00:59:27.866Z,11.20
2018-06-16T01:00:28.066Z,10.90
2018-06-16T01:01:28.276Z,10.60
2018-06-16T01:02:28.484Z,10.20
2018-06-16T01:03:28.699Z,11.00
2018-06-16T01:04:28.921Z,11.20
2018-06-16T01:05:29.102Z,10.20
2018-06-16T01:06:29.310Z,11.00
2018-06-16T01:07:29.514Z,12.10
2018-06-16T01:08:29.701Z,10.80
2018-06-16T01:09:29.890Z,11.60
2018-06-16T01:10:30.074Z,10.70
2018-06-16T01:11:30.259Z,11.30
2018-06-16T01:12:30.443Z,11.50
2018-06-16T01:13:30.631Z,10.30
2018-06-16T01:14:30.833Z,10.90
2018-06-16T01:15:31.048Z,10.70
2018-06-16T01:16:31.256Z,10.30
2018-06-16T01:17:31.443Z,11.20
2018-06-16T01:18:31.653Z,10.10
2018-06-16T01:19:31.854Z,11.60
2018-06-16T01:20:32.079Z,11.20
2018-06-16T01:21:32.281Z,10.70
2018-06-16T01:22:32.482Z,11.60
2018-06-16T01:23:32.666Z,11.40
2018-06-16T01:24:32.874Z,11.20
2018-06-16T01:25:33.071Z,10.70
2018-06-16T01:26:33.253Z,11.10
2018-06-16T01:27:33.461Z,10.70
2018-06-16T01:28:33.645Z,10.80
2018-06-16T01:29:33.854Z,10.90
2018-06-16T01:30:34.061Z,11.00
2018-06-16T01:31:34.245Z,11.30
2018-06-16T01:32:34.439Z,11.10
2018-06-16T01:33:34.636Z,11.70
2018-06-16T01:34:34.848Z,11.90
2018-06-16T01:35:35.036Z,11.90
2018-06-16T01:36:35.248Z,13.10
2018-06-16T01:37:35.455Z,11.90
2018-06-16T01:38:35.652Z,12.50
2018-06-16T01:39:35.856Z,12.70
2018-06-16T01:40:36.063Z,12.10
2018-06-16T01:41:36.274Z,13.20
2018-06-16T01:42:36.485Z,13.00
2018-06-16T01:43:36.693Z,13.20
2018-06-16T01:44:36.905Z,13.80
2018-06-16T01:45:37.111Z,13.70
2018-06-16T01:46:37.310Z,13.70
2018-06-16T01:47:37.516Z,13.30
2018-06-16T01:50:09.655Z,12.30
2018-06-16T01:51:09.829Z,11.50
2018-06-16T01:52:10.038Z,11.00
2018-06-16T01:53:10.234Z,12.20
2018-06-16T01:54:10.421Z,11.70
2018-06-16T01:55:10.639Z,10.90
2018-06-16T01:56:10.819Z,11.30
2018-06-16T01:57:11.035Z,10.70
2018-06-16T01:58:11.229Z,11.50
2018-06-16T01:59:11.444Z,11.30
2018-06-16T02:00:11.652Z,10.90
2018-06-16T02:01:11.852Z,11.80
2018-06-16T02:02:12.025Z,12.40
2018-06-16T02:03:12.227Z,12.30
2018-06-16T02:04:12.431Z,12.50
2018-06-16T02:05:12.644Z,11.40
2018-06-16T02:06:12.838Z,11.90
2018-06-16T02:07:13.019Z,11.10
2018-06-16T02:08:13.237Z,10.20
2018-06-16T02:09:13.453Z,10.80
2018-06-16T02:10:13.708Z,10.70
2018-06-16T02:11:13.891Z,10.40
2018-06-16T02:12:14.089Z,10.20
2018-06-16T02:13:14.300Z,10.50
2018-06-16T02:14:14.508Z,9.80
2018-06-16T02:15:14.700Z,10.00
2018-06-16T02:16:14.898Z,10.20
2018-06-16T02:18:46.705Z,10.80
2018-06-16T02:19:46.880Z,10.80
2018-06-16T02:20:47.085Z,11.00
2018-06-16T02:21:47.283Z,10.60
2018-06-16T02:22:47.612Z,11.00
2018-06-16T02:23:47.703Z,10.20
2018-06-16T02:24:47.887Z,10.90
2018-06-16T02:25:48.101Z,10.90
2018-06-16T02:26:48.295Z,10.70
2018-06-16T02:27:48.489Z,11.10
2018-06-16T02:28:48.699Z,11.30
2018-06-16T02:29:48.905Z,11.50
2018-06-16T02:30:49.115Z,11.20
2018-06-16T02:31:49.306Z,10.30
2018-06-16T02:32:49.492Z,11.40
2018-06-16T02:33:49.711Z,10.20
2018-06-16T02:34:49.908Z,11.60
2018-06-16T02:35:50.112Z,11.60
2018-06-16T02:36:50.305Z,11.30
2018-06-16T02:37:50.495Z,11.40
2018-06-16T02:38:50.685Z,12.10
2018-06-16T02:39:50.897Z,11.20
2018-06-16T02:40:51.089Z,11.60
2018-06-16T02:41:51.289Z,11.30
2018-06-16T02:42:51.493Z,11.50
2018-06-16T02:43:51.702Z,11.90
2018-06-16T02:44:52.041Z,11.70
2018-06-16T02:45:52.118Z,11.90
2018-06-16T02:46:52.314Z,11.80
2018-06-16T02:47:52.494Z,12.00
2018-06-16T02:48:52.701Z,11.50
2018-06-16T02:49:52.912Z,12.00
2018-06-16T02:50:53.105Z,11.60
2018-06-16T02:51:53.373Z,11.40
2018-06-16T02:52:53.448Z,11.50
2018-06-16T02:53:53.629Z,11.90
2018-06-16T02:56:25.783Z,12.80
2018-06-16T02:57:25.989Z,13.00
2018-06-16T02:58:26.175Z,12.70
2018-06-16T02:59:26.396Z,13.90
2018-06-16T03:00:26.589Z,12.90
2018-06-16T03:01:26.778Z,13.10
2018-06-16T03:02:26.983Z,13.50
2018-06-16T03:03:27.193Z,13.60
2018-06-16T03:04:27.424Z,13.70
2018-06-16T03:05:27.622Z,12.70
2018-06-16T03:06:27.826Z,13.10
2018-06-16T03:07:28.012Z,12.50
2018-06-16T03:08:28.202Z,13.30
2018-06-16T03:09:28.410Z,12.80
2018-06-16T03:10:28.625Z,12.60
2018-06-16T03:11:28.816Z,12.90
2018-06-16T03:12:29.007Z,12.50
2018-06-16T03:13:29.192Z,12.80
2018-06-16T03:14:29.398Z,12.60
2018-06-16T03:15:29.601Z,13.30
2018-06-16T03:16:29.809Z,13.90
2018-06-16T03:17:30.021Z,14.10
2018-06-16T03:18:30.233Z,13.40
2018-06-16T03:19:30.428Z,14.10
2018-06-16T03:20:30.628Z,14.20
2018-06-16T03:21:30.825Z,14.10
2018-06-16T03:22:31.037Z,14.00
2018-06-16T03:23:31.275Z,12.80
2018-06-16T03:24:31.397Z,13.60
2018-06-16T03:25:31.588Z,13.60
2018-06-16T03:26:31.844Z,13.90
2018-06-16T03:27:32.034Z,14.00
2018-06-16T03:28:32.243Z,13.30
2018-06-16T03:29:32.436Z,13.20
2018-06-16T03:30:32.629Z,14.10
2018-06-16T03:31:32.815Z,13.80
2018-06-16T03:32:33.016Z,14.30
2018-06-16T03:33:33.212Z,13.90
2018-06-16T03:34:33.414Z,13.50
2018-06-16T03:35:33.618Z,14.20
2018-06-16T03:36:33.808Z,13.10
2018-06-16T03:37:33.999Z,13.10
2018-06-16T03:40:06.200Z,12.60
2018-06-16T03:41:06.384Z,13.10
2018-06-16T03:42:06.576Z,12.80
2018-06-16T03:43:06.766Z,13.30
2018-06-16T03:44:06.978Z,13.80
2018-06-16T03:45:07.171Z,13.70
2018-06-16T03:46:07.378Z,13.20
2018-06-16T03:47:07.565Z,13.10
2018-06-16T03:49:39.782Z,14.20
2018-06-16T03:50:39.818Z,13.30
2018-06-16T03:51:40.012Z,13.60
2018-06-16T03:52:40.204Z,14.20
2018-06-16T03:53:40.404Z,15.20
2018-06-16T03:54:40.622Z,14.10
2018-06-16T03:55:40.833Z,14.20
2018-06-16T03:56:41.043Z,14.70
2018-06-16T03:57:41.227Z,14.70
2018-06-16T03:58:41.435Z,13.70
2018-06-16T03:59:41.617Z,14.60
2018-06-16T04:00:41.938Z,15.60
2018-06-16T04:01:42.006Z,15.70
2018-06-16T04:02:42.217Z,14.80
2018-06-16T04:03:42.402Z,15.00
2018-06-16T04:04:42.585Z,14.20
2018-06-16T04:05:42.815Z,14.00
2018-06-16T04:06:43.011Z,14.30
2018-06-16T04:07:43.209Z,14.40
2018-06-16T04:08:43.406Z,14.10
2018-06-16T04:09:43.596Z,13.30
2018-06-16T04:10:43.775Z,14.60
2018-06-16T04:11:43.983Z,13.60
2018-06-16T04:12:44.175Z,13.90
2018-06-16T04:13:44.378Z,14.30
2018-06-16T04:14:44.562Z,13.70
2018-06-16T04:15:44.748Z,13.60
2018-06-16T04:16:44.978Z,13.90
2018-06-16T04:17:45.147Z,14.50
2018-06-16T04:18:45.333Z,13.70
2018-06-16T04:19:45.545Z,12.90
2018-06-16T04:20:45.732Z,12.70
2018-06-16T04:21:45.998Z,12.70
2018-06-16T04:22:46.080Z,13.10
2018-06-16T04:23:46.287Z,12.50
2018-06-16T04:24:46.493Z,12.50
2018-06-16T04:25:46.691Z,12.60
2018-06-16T04:26:46.908Z,12.00
2018-06-16T04:27:47.101Z,11.90
2018-06-16T04:28:47.297Z,12.80
2018-06-16T04:29:47.505Z,11.50
2018-06-16T04:32:19.641Z,11.40
2018-06-16T04:33:19.816Z,12.00
2018-06-16T04:34:20.021Z,11.80
2018-06-16T04:35:20.225Z,11.10
2018-06-16T04:36:20.419Z,10.50
2018-06-16T04:37:20.615Z,10.90
2018-06-16T04:38:20.821Z,10.40
2018-06-16T04:39:21.002Z,10.30
2018-06-16T04:40:21.192Z,10.80
2018-06-16T04:41:21.392Z,10.80
2018-06-16T04:43:53.578Z,10.00
2018-06-16T04:44:53.863Z,9.90
2018-06-16T04:45:53.968Z,9.40
2018-06-16T04:46:54.120Z,9.70
2018-06-16T04:47:54.304Z,9.70
2018-06-16T04:48:54.518Z,8.90
2018-06-16T04:49:54.719Z,9.00
2018-06-16T04:50:54.905Z,9.30
2018-06-16T04:51:55.118Z,9.40
2018-06-16T04:52:55.331Z,9.70
2018-06-16T04:53:55.516Z,9.30
2018-06-16T04:54:55.729Z,9.10
2018-06-16T04:55:55.996Z,9.30
2018-06-16T04:56:56.102Z,9.40
2018-06-16T04:57:56.261Z,9.20
2018-06-16T04:58:56.474Z,9.20
2018-06-16T04:59:56.671Z,8.60
2018-06-16T05:00:56.881Z,8.50
2018-06-16T05:01:57.076Z,8.50
2018-06-16T05:02:57.299Z,8.70
2018-06-16T05:03:57.501Z,8.80
2018-06-16T05:04:57.715Z,8.30
2018-06-16T05:05:57.907Z,8.40
2018-06-16T05:06:58.121Z,8.70
2018-06-16T05:07:58.329Z,8.30
2018-06-16T05:08:58.520Z,8.40
2018-06-16T05:09:58.709Z,8.30
2018-06-16T05:10:58.900Z,8.60
2018-06-16T05:11:59.116Z,8.30
2018-06-16T05:12:59.328Z,8.30
2018-06-16T05:13:59.629Z,8.70
2018-06-16T05:14:59.686Z,9.00
2018-06-16T05:15:59.909Z,9.20
2018-06-16T05:17:00.134Z,10.00
2018-06-16T05:18:00.316Z,9.20
2018-06-16T05:19:00.512Z,9.60
2018-06-16T05:20:00.702Z,9.50
2018-06-16T05:21:00.916Z,9.60
2018-06-16T05:22:01.131Z,9.30
2018-06-16T05:23:01.327Z,9.40
2018-06-16T05:24:01.516Z,9.00
2018-06-16T05:25:01.714Z,9.20
2018-06-16T05:26:01.933Z,9.50
2018-06-16T05:27:02.116Z,9.00
2018-06-16T05:28:02.450Z,9.50
2018-06-16T05:29:02.528Z,8.00
2018-06-16T05:30:02.721Z,8.70
2018-06-16T05:31:02.911Z,8.20
2018-06-16T05:32:03.123Z,8.60
2018-06-16T05:33:03.342Z,8.70
2018-06-16T05:34:03.535Z,9.20
2018-06-16T05:35:03.758Z,8.90
2018-06-16T05:36:03.975Z,9.20
2018-06-16T05:37:04.189Z,9.50
2018-06-16T05:38:04.406Z,9.60
2018-06-16T05:39:04.598Z,9.60
2018-06-16T05:40:04.807Z,9.20
2018-06-16T05:41:05.002Z,9.80
2018-06-16T05:42:05.205Z,9.90
2018-06-16T05:43:05.414Z,9.80
2018-06-16T05:44:05.611Z,10.30
2018-06-16T05:45:05.815Z,9.70
2018-06-16T05:46:06.024Z,9.70
2018-06-16T05:47:06.216Z,10.10
2018-06-16T05:48:06.438Z,10.60
2018-06-16T05:49:06.624Z,10.50
2018-06-16T05:50:06.839Z,10.80
2018-06-16T05:51:07.053Z,10.50
2018-06-16T05:52:07.258Z,11.00
2018-06-16T05:53:07.453Z,10.20
2018-06-16T05:54:07.655Z,10.50
2018-06-16T05:55:07.867Z,10.50
2018-06-16T05:56:08.066Z,10.50
2018-06-16T05:57:08.260Z,10.90
2018-06-16T05:58:08.470Z,11.10
2018-06-16T05:59:08.686Z,11.00
2018-06-16T06:00:08.869Z,11.70
2018-06-16T06:01:09.065Z,10.80
2018-06-16T06:02:09.260Z,11.50
2018-06-16T06:03:09.464Z,11.70
2018-06-16T06:04:09.654Z,10.90
2018-06-16T06:05:09.870Z,11.00
2018-06-16T06:06:10.070Z,11.10
2018-06-16T06:07:10.255Z,11.00
2018-06-16T06:08:10.531Z,11.00
2018-06-16T06:09:10.616Z,11.70
2018-06-16T06:10:10.872Z,10.60
2018-06-16T06:11:11.048Z,11.60
2018-06-16T06:12:11.248Z,11.40
2018-06-16T06:13:11.431Z,11.10
2018-06-16T06:14:11.641Z,11.40
2018-06-16T06:15:11.846Z,12.40
2018-06-16T06:16:12.058Z,11.40
2018-06-16T06:17:12.258Z,11.90
2018-06-16T06:18:12.466Z,12.20
2018-06-16T06:19:12.673Z,12.10
2018-06-16T06:20:12.860Z,12.40
2018-06-16T06:21:13.076Z,12.40
2018-06-16T06:22:13.281Z,12.10
2018-06-16T06:23:13.568Z,12.50
2018-06-16T06:24:13.637Z,13.10
2018-06-16T06:25:13.845Z,12.10
2018-06-16T06:26:14.035Z,12.50
2018-06-16T06:27:14.238Z,12.10
2018-06-16T06:28:14.426Z,13.00
2018-06-16T06:30:46.553Z,12.90
2018-06-16T06:31:46.737Z,12.60
2018-06-16T06:32:46.945Z,12.20
2018-06-16T06:33:47.156Z,12.00
2018-06-16T06:34:47.375Z,12.30
2018-06-16T06:35:47.585Z,12.30
2018-06-16T06:36:47.815Z,11.90
2018-06-16T06:37:48.026Z,12.20
2018-06-16T06:38:48.249Z,12.40
2018-06-16T06:39:48.406Z,12.20
2018-06-16T06:40:48.601Z,12.10
2018-06-16T06:41:48.809Z,12.40
2018-06-16T06:42:49.020Z,12.20
2018-06-16T06:43:49.256Z,12.70
2018-06-16T06:44:49.457Z,11.80
2018-06-16T06:45:49.655Z,12.20
2018-06-16T06:48:21.779Z,11.80
2018-06-16T06:49:21.957Z,11.80
2018-06-16T06:50:22.141Z,12.60
2018-06-16T06:51:22.348Z,11.50
2018-06-16T06:52:22.557Z,11.60
2018-06-16T06:53:22.764Z,12.10
2018-06-16T06:54:22.956Z,11.20
2018-06-16T06:55:23.178Z,12.10
2018-06-16T06:56:23.389Z,11.50
2018-06-16T06:57:23.730Z,11.80
2018-06-16T06:58:23.795Z,11.10
2018-06-16T06:59:24.034Z,10.70
2018-06-16T07:00:24.222Z,11.20
2018-06-16T07:01:24.486Z,11.30
2018-06-16T07:02:24.640Z,11.60
2018-06-16T07:03:24.841Z,10.90
2018-06-16T07:04:25.055Z,11.50
2018-06-16T07:05:25.264Z,10.90
2018-06-16T07:06:25.465Z,10.60
2018-06-16T07:07:25.683Z,11.10
2018-06-16T07:09:57.927Z,10.80
2018-06-16T07:10:58.163Z,10.50
2018-06-16T07:11:58.307Z,10.70
2018-06-16T07:12:58.522Z,10.80
2018-06-16T07:13:58.743Z,10.10
2018-06-16T07:14:58.949Z,9.90
2018-06-16T07:15:59.171Z,9.90
2018-06-16T07:16:59.381Z,10.30
2018-06-16T07:17:59.572Z,9.70
2018-06-16T07:18:59.771Z,9.70
2018-06-16T07:19:59.978Z,10.40
2018-06-16T07:21:00.177Z,10.30
2018-06-16T07:22:00.386Z,10.00
2018-06-16T07:23:00.580Z,10.20
2018-06-16T07:24:00.774Z,9.90
2018-06-16T07:25:00.967Z,9.70
2018-06-16T07:26:01.168Z,9.50
2018-06-16T07:27:01.406Z,9.10
2018-06-16T07:28:01.588Z,8.60
2018-06-16T07:29:01.799Z,9.00
2018-06-16T07:30:02.027Z,8.70
2018-06-16T07:31:02.257Z,8.70
2018-06-16T07:32:02.427Z,9.00
2018-06-16T07:33:02.638Z,9.50
2018-06-16T07:34:02.911Z,8.60
2018-06-16T07:35:03.047Z,8.80
2018-06-16T07:36:03.309Z,8.50
2018-06-16T07:37:03.447Z,8.50
2018-06-16T07:38:03.677Z,8.50
2018-06-16T07:39:03.865Z,8.60
2018-06-16T07:40:04.070Z,7.90
2018-06-16T07:41:04.279Z,8.20
2018-06-16T07:43:36.630Z,8.70
2018-06-16T07:44:36.805Z,9.00
2018-06-16T07:45:37.023Z,8.30
2018-06-16T07:46:37.244Z,8.40
2018-06-16T07:47:37.474Z,8.00
2018-06-16T07:48:37.662Z,8.20
2018-06-16T07:49:37.856Z,8.80
2018-06-16T07:50:38.048Z,8.50
2018-06-16T07:51:38.268Z,8.50
2018-06-16T07:52:38.462Z,8.30
2018-06-16T07:53:38.648Z,8.10
2018-06-16T07:54:38.871Z,7.90
2018-06-16T07:57:11.186Z,8.30
2018-06-16T07:58:11.422Z,8.20
2018-06-16T07:59:11.639Z,8.40
2018-06-16T08:00:11.845Z,8.10
2018-06-16T08:01:12.043Z,9.00
2018-06-16T08:02:12.257Z,8.60
2018-06-16T08:03:12.451Z,8.90
2018-06-16T08:04:12.649Z,8.30
2018-06-16T08:05:12.844Z,8.20
2018-06-16T08:06:13.057Z,8.20
2018-06-16T08:07:13.272Z,7.80
2018-06-16T08:08:13.480Z,7.60
2018-06-16T08:09:13.698Z,7.80
2018-06-16T08:10:13.892Z,8.20
2018-06-16T08:12:46.332Z,8.00
2018-06-16T08:13:46.369Z,8.30
2018-06-16T08:14:46.551Z,7.80
2018-06-16T08:15:46.755Z,8.40
2018-06-16T08:16:46.950Z,7.20
2018-06-16T08:17:47.168Z,7.20
2018-06-16T08:18:47.358Z,7.10
2018-06-16T08:19:47.575Z,7.20
2018-06-16T08:20:47.781Z,6.80
2018-06-16T08:21:47.979Z,6.90
2018-06-16T08:22:48.177Z,7.00
2018-06-16T08:23:48.378Z,6.50
2018-06-16T08:24:48.586Z,6.80
2018-06-16T08:25:48.784Z,6.40
2018-06-16T08:26:49.016Z,6.00
2018-06-16T08:27:49.221Z,6.70
2018-06-16T08:28:49.449Z,6.40
2018-06-16T08:29:49.667Z,6.20
2018-06-16T08:30:49.877Z,7.10
2018-06-16T08:31:50.095Z,6.90
2018-06-16T08:34:22.410Z,6.40
2018-06-16T08:35:22.589Z,6.90
2018-06-16T08:36:22.788Z,7.10
2018-06-16T08:37:22.998Z,6.90
2018-06-16T08:38:23.198Z,6.20
2018-06-16T08:39:23.417Z,7.10
2018-06-16T08:40:23.636Z,6.50
2018-06-16T08:41:23.842Z,5.90
2018-06-16T08:42:24.072Z,6.20
2018-06-16T08:43:24.301Z,6.40
2018-06-16T08:44:24.491Z,6.10
2018-06-16T08:45:24.683Z,6.10
2018-06-16T08:46:24.909Z,6.30
2018-06-16T08:47:25.113Z,6.70
2018-06-16T08:48:25.325Z,6.40
2018-06-16T08:50:57.501Z,6.30
2018-06-16T08:51:57.697Z,6.60
2018-06-16T08:52:57.899Z,6.70
2018-06-16T08:53:58.106Z,6.40
2018-06-16T08:54:58.303Z,6.20
2018-06-16T08:55:58.499Z,6.60
2018-06-16T08:56:58.704Z,6.20
2018-06-16T08:57:58.898Z,6.00
2018-06-16T08:58:59.119Z,6.30
2018-06-16T08:59:59.336Z,5.90
2018-06-16T09:00:59.559Z,5.90
2018-06-16T09:01:59.773Z,5.90
2018-06-16T09:03:00.044Z,5.30
2018-06-16T09:04:00.182Z,5.80
2018-06-16T09:05:00.383Z,6.10
2018-06-16T09:06:00.590Z,5.90
2018-06-16T09:08:32.517Z,5.80
2018-06-16T09:09:32.697Z,5.40
2018-06-16T09:10:32.920Z,5.70
2018-06-16T09:11:33.203Z,5.90
2018-06-16T09:12:33.347Z,5.30
2018-06-16T09:13:33.554Z,5.30
2018-06-16T09:14:33.763Z,5.50
2018-06-16T09:15:34.008Z,5.60
2018-06-16T09:16:34.210Z,5.60
2018-06-16T09:17:34.426Z,5.40
2018-06-16T09:18:34.631Z,5.60
2018-06-16T09:19:34.819Z,5.10
2018-06-16T09:20:35.030Z,5.10
2018-06-16T09:21:35.235Z,5.20
2018-06-16T09:22:35.491Z,5.50
2018-06-16T09:23:35.666Z,5.20
2018-06-16T09:24:35.878Z,5.30
2018-06-16T09:25:36.102Z,5.40
2018-06-16T09:26:36.332Z,5.50
2018-06-16T09:27:36.542Z,5.30
2018-06-16T09:28:36.733Z,5.50
2018-06-16T09:29:36.943Z,5.30
2018-06-16T09:30:37.137Z,5.90
2018-06-16T09:31:37.359Z,5.60
2018-06-16T09:32:37.551Z,5.50
2018-06-16T09:33:37.755Z,5.70
2018-06-16T09:34:37.983Z,5.00
2018-06-16T09:35:38.200Z,4.90
2018-06-16T09:36:38.422Z,5.00
2018-06-16T09:37:38.626Z,4.70
2018-06-16T09:38:38.836Z,4.60
2018-06-16T09:39:39.046Z,4.90
2018-06-16T09:40:39.292Z,4.70
2018-06-16T09:41:39.433Z,5.10
2018-06-16T09:42:39.645Z,4.60
2018-06-16T09:43:39.871Z,4.40
2018-06-16T09:44:40.092Z,4.50
2018-06-16T09:45:40.292Z,4.10
2018-06-16T09:46:40.513Z,4.30
2018-06-16T09:47:40.730Z,4.50
2018-06-16T09:48:40.942Z,5.10
2018-06-16T09:49:41.140Z,4.70
2018-06-16T09:50:41.332Z,4.50
2018-06-16T09:51:41.525Z,4.00
2018-06-16T09:54:13.694Z,4.10
2018-06-16T09:55:13.877Z,4.10
2018-06-16T09:56:14.074Z,3.90
2018-06-16T09:57:14.295Z,4.10
2018-06-16T09:58:14.517Z,4.00
2018-06-16T09:59:14.718Z,3.90
2018-06-16T10:00:14.938Z,3.90
2018-06-16T10:01:15.147Z,4.30
2018-06-16T10:02:15.338Z,4.50
2018-06-16T10:03:15.613Z,4.60
2018-06-16T10:04:15.779Z,4.30
2018-06-16T10:05:16.013Z,4.00
2018-06-16T10:06:16.245Z,3.60
2018-06-16T10:07:16.471Z,3.90
2018-06-16T10:08:16.664Z,3.90
2018-06-16T10:09:16.875Z,4.00
2018-06-16T10:10:17.076Z,4.30
2018-06-16T10:11:17.289Z,3.80
2018-06-16T10:12:17.495Z,3.50
2018-06-16T10:13:17.714Z,3.70
2018-06-16T10:14:17.940Z,3.50
2018-06-16T10:15:18.204Z,3.50
2018-06-16T10:17:49.919Z,4.00
2018-06-16T10:18:50.105Z,4.30
2018-06-16T10:19:50.313Z,3.70
2018-06-16T10:20:50.529Z,3.30
2018-06-16T10:21:50.728Z,3.20
2018-06-16T10:22:50.946Z,3.30
2018-06-16T10:23:51.152Z,3.50
2018-06-16T10:24:51.367Z,3.20
2018-06-16T10:25:51.572Z,3.60
2018-06-16T10:26:51.786Z,3.30
2018-06-16T10:27:51.992Z,3.60
2018-06-16T10:28:52.201Z,3.50
2018-06-16T10:29:52.408Z,3.60
2018-06-16T10:30:52.621Z,3.60
2018-06-16T10:31:52.824Z,3.80
2018-06-16T10:32:53.030Z,3.90
2018-06-16T10:33:53.236Z,3.90
2018-06-16T10:34:53.464Z,4.00
2018-06-16T10:35:53.681Z,4.00
2018-06-16T10:36:53.887Z,4.20
2018-06-16T10:37:54.112Z,3.80
2018-06-16T10:38:54.343Z,3.90
2018-06-16T10:39:54.567Z,3.80
2018-06-16T10:40:54.800Z,4.20
2018-06-16T10:41:55.006Z,4.20
2018-06-16T10:42:55.228Z,3.80
2018-06-16T10:43:55.442Z,4.00
2018-06-16T10:44:55.650Z,3.90
2018-06-16T10:45:55.871Z,4.20
2018-06-16T10:48:28.298Z,3.90
2018-06-16T10:49:28.240Z,3.70
2018-06-16T10:52:00.614Z,3.70
2018-06-16T10:53:00.799Z,3.70
2018-06-16T10:54:00.993Z,3.90
2018-06-16T10:55:01.201Z,3.80
2018-06-16T10:56:01.398Z,3.60
2018-06-16T10:57:01.612Z,3.30
2018-06-16T10:58:01.836Z,3.80
2018-06-16T10:59:02.066Z,3.40
2018-06-16T11:00:02.261Z,3.70
2018-06-16T11:01:02.466Z,4.10
2018-06-16T11:02:02.684Z,3.70
2018-06-16T11:03:02.903Z,3.60
2018-06-16T11:04:03.092Z,3.40
2018-06-16T11:05:03.336Z,3.70
2018-06-16T11:06:03.564Z,3.80
2018-06-16T11:07:03.756Z,3.30
2018-06-16T11:08:03.962Z,4.10
2018-06-16T11:09:04.198Z,3.40
2018-06-16T11:10:04.391Z,3.60
2018-06-16T11:11:04.606Z,3.80
2018-06-16T11:12:04.832Z,3.80
2018-06-16T11:13:05.046Z,3.70
2018-06-16T11:14:05.261Z,3.60
2018-06-16T11:15:05.465Z,3.40
2018-06-16T11:16:05.664Z,3.50
2018-06-16T11:17:05.864Z,3.50
2018-06-16T11:18:06.057Z,3.30
2018-06-16T11:19:06.329Z,3.50
2018-06-16T11:20:06.485Z,3.40
2018-06-16T11:21:06.688Z,2.90
2018-06-16T11:22:06.885Z,3.30
2018-06-16T11:23:07.096Z,3.70
2018-06-16T11:24:07.314Z,3.30
2018-06-16T11:25:07.533Z,3.70
2018-06-16T11:26:07.754Z,3.50
2018-06-16T11:27:07.959Z,3.70
2018-06-16T11:28:08.180Z,3.70
2018-06-16T11:30:40.358Z,3.50
2018-06-16T11:31:40.541Z,3.00
2018-06-16T11:32:40.748Z,3.00
2018-06-16T11:33:40.975Z,3.10
2018-06-16T11:34:41.227Z,3.10
2018-06-16T11:35:41.379Z,2.90
2018-06-16T11:36:41.580Z,2.70
2018-06-16T11:37:41.786Z,2.70
2018-06-16T11:38:42.008Z,2.70
2018-06-16T11:39:42.259Z,2.80
2018-06-16T11:40:42.495Z,3.00
2018-06-16T11:41:42.692Z,3.10
2018-06-16T11:42:42.903Z,3.00
2018-06-16T11:43:43.105Z,2.70
2018-06-16T11:44:43.324Z,3.10
2018-06-16T11:45:43.554Z,2.80
2018-06-16T11:46:43.761Z,3.00
2018-06-16T11:47:44.019Z,3.10
2018-06-16T11:48:44.165Z,3.20
2018-06-16T11:49:44.307Z,3.30
2018-06-16T11:50:44.507Z,2.90
2018-06-16T11:51:44.723Z,3.10
2018-06-16T11:52:44.927Z,3.40
2018-06-16T11:53:45.147Z,3.30
2018-06-16T11:54:45.344Z,3.30
2018-06-16T11:55:45.565Z,3.20
2018-06-16T11:56:45.769Z,3.10
2018-06-16T11:57:45.985Z,3.10
2018-06-16T11:58:46.254Z,3.50
2018-06-16T11:59:46.349Z,2.90
2018-06-16T12:00:46.549Z,2.80
2018-06-16T12:01:46.787Z,3.20
2018-06-16T12:02:46.939Z,3.20
2018-06-16T12:03:47.137Z,3.10
2018-06-16T12:04:47.360Z,3.30
2018-06-16T12:05:47.572Z,3.00
2018-06-16T12:06:47.782Z,3.20
2018-06-16T12:07:47.974Z,3.50
2018-06-16T12:08:48.184Z,3.30
2018-06-16T12:09:48.387Z,3.00
2018-06-16T12:10:48.572Z,3.10
2018-06-16T12:11:48.779Z,3.20
2018-06-16T12:12:48.973Z,3.80
2018-06-16T12:13:49.170Z,3.40
2018-06-16T12:14:49.389Z,3.70
2018-06-16T12:15:49.607Z,3.20
2018-06-16T12:16:49.810Z,3.60
2018-06-16T12:17:50.025Z,3.50
2018-06-16T12:18:50.212Z,3.30
2018-06-16T12:19:50.447Z,3.70
2018-06-16T12:20:50.648Z,3.70
2018-06-16T12:21:50.847Z,3.50
2018-06-16T12:22:51.048Z,3.60
2018-06-16T12:23:51.268Z,3.70
2018-06-16T12:24:51.477Z,3.90
2018-06-16T12:25:51.678Z,3.50
2018-06-16T12:26:51.889Z,3.60
2018-06-16T12:27:52.133Z,3.50
2018-06-16T12:28:52.326Z,3.80
2018-06-16T12:29:52.537Z,3.50
2018-06-16T12:30:52.736Z,3.30
2018-06-16T12:31:52.943Z,3.10
2018-06-16T12:32:53.150Z,3.50
2018-06-16T12:33:53.375Z,3.30
2018-06-16T12:34:53.563Z,3.50
2018-06-16T12:35:53.848Z,3.40
2018-06-16T12:36:53.945Z,3.70
2018-06-16T12:37:54.153Z,3.70
2018-06-16T12:38:54.348Z,3.70
2018-06-16T12:39:54.546Z,3.40
2018-06-16T12:40:54.765Z,3.20
2018-06-16T12:41:54.966Z,3.30
2018-06-16T12:42:55.167Z,3.30
2018-06-16T12:43:55.371Z,3.40
2018-06-16T12:44:55.570Z,3.40
2018-06-16T12:45:55.771Z,3.30
2018-06-16T12:46:55.971Z,3.60
2018-06-16T12:47:56.189Z,3.50
2018-06-16T12:50:28.356Z,3.60
2018-06-16T12:51:28.535Z,3.50
2018-06-16T12:52:28.742Z,3.60
2018-06-16T12:53:28.962Z,3.50
2018-06-16T12:54:29.184Z,3.40
2018-06-16T12:55:29.386Z,4.10
2018-06-16T12:56:29.686Z,3.80
2018-06-16T12:57:29.817Z,3.60
2018-06-16T12:58:30.018Z,3.20
2018-06-16T12:59:30.217Z,3.60
2018-06-16T13:00:30.414Z,3.80
2018-06-16T13:01:30.617Z,3.80
2018-06-16T13:02:30.803Z,3.90
2018-06-16T13:03:31.010Z,3.60
2018-06-16T13:06:04.054Z,3.50
2018-06-16T13:07:04.109Z,3.60
2018-06-16T13:08:04.303Z,3.20
2018-06-16T13:09:04.500Z,3.40
2018-06-16T13:10:04.700Z,3.30
2018-06-16T13:11:04.934Z,3.40
2018-06-16T13:12:05.135Z,3.40
2018-06-16T13:13:05.357Z,3.20
2018-06-16T13:14:05.557Z,3.30
2018-06-16T13:15:05.748Z,3.40
2018-06-16T13:16:05.970Z,3.40
2018-06-16T13:17:06.176Z,3.50
2018-06-16T13:18:06.384Z,3.90
2018-06-16T13:19:06.587Z,3.90
2018-06-16T13:20:06.807Z,3.70
2018-06-16T13:21:07.034Z,3.60
2018-06-16T13:22:07.225Z,3.50
2018-06-16T13:23:07.432Z,3.60
2018-06-16T13:24:07.697Z,3.70
2018-06-16T13:25:07.901Z,3.80
2018-06-16T13:26:08.115Z,3.70
2018-06-16T13:27:08.329Z,3.60
2018-06-16T13:28:08.521Z,3.80
2018-06-16T13:29:08.757Z,3.50
2018-06-16T13:30:08.949Z,3.60
2018-06-16T13:31:09.141Z,3.40
2018-06-16T13:32:09.377Z,3.30
2018-06-16T13:33:09.593Z,3.80
2018-06-16T13:34:09.811Z,3.80
2018-06-16T13:35:10.016Z,3.70
2018-06-16T13:36:10.206Z,3.90
2018-06-16T13:37:10.432Z,3.90
2018-06-16T13:38:10.625Z,3.40
2018-06-16T13:39:10.821Z,3.90
2018-06-16T13:40:11.039Z,3.70
2018-06-16T13:41:11.256Z,3.70
2018-06-16T13:42:11.463Z,3.40
2018-06-16T13:43:11.686Z,3.20
2018-06-16T13:44:11.866Z,3.50
2018-06-16T13:45:12.074Z,3.70
2018-06-16T13:46:12.259Z,3.60
2018-06-16T13:47:12.458Z,3.90
2018-06-16T13:48:12.675Z,3.70